Time;durP1;ratioP1;P1;durP2;ratioP2;P2;SDS_P1;SDS_P2;PMS_P1;PMS_P2;Temp;Humidity;BMP_temperature;BMP_pressure;BME280_temperature;BME280_humidity;BME280_pressure;Samples;Min_cycle;Max_cycle;Signal;HPM_P1;HPM_P2
2023/11/19 00:01:26;;;;;;;36.00;5.97;;;;;;;11.56;100.00;100862.53;5051639;28;20037;-78
2023/11/19 00:03:51;;;;;;;49.35;6.35;;;;;;;11.54;100.00;100860.00;5031060;28;20030;-79
2023/11/19 00:06:17;;;;;;;49.03;7.18;;;;;;;11.53;100.00;100862.81;5031908;28;20061;-77
2023/11/19 00:08:43;;;;;;;45.35;6.07;;;;;;;11.55;100.00;100882.97;5030145;28;20088;-79
2023/11/19 00:11:09;;;;;;;62.22;8.18;;;;;;;11.55;100.00;100879.47;5031887;28;20026;-79
2023/11/19 00:13:34;;;;;;;42.05;5.53;;;;;;;11.55;100.00;100892.81;5031737;28;20075;-79
2023/11/19 00:15:59;;;;;;;51.33;6.80;;;;;;;11.56;100.00;100883.84;5030085;28;20128;-79
2023/11/19 00:18:25;;;;;;;47.60;7.10;;;;;;;11.53;100.00;100876.97;5032119;28;20045;-78
2023/11/19 00:20:50;;;;;;;51.42;6.25;;;;;;;11.52;100.00;100871.78;5031092;28;20446;-80
2023/11/19 00:23:16;;;;;;;55.92;6.97;;;;;;;11.47;100.00;100870.38;5031734;28;20079;-77
2023/11/19 00:25:41;;;;;;;50.10;6.28;;;;;;;11.45;100.00;100866.19;5031495;28;20037;-89
2023/11/19 00:28:07;;;;;;;51.47;7.07;;;;;;;11.40;100.00;100863.94;5030325;28;20057;-77
2023/11/19 00:30:32;;;;;;;61.42;7.95;;;;;;;11.35;100.00;100862.72;5031812;28;20136;-78
2023/11/19 00:32:57;;;;;;;57.60;6.80;;;;;;;11.31;100.00;100866.66;5031457;28;20033;-77
2023/11/19 00:35:23;;;;;;;60.40;6.95;;;;;;;11.28;100.00;100857.09;5031601;28;20491;-77
2023/11/19 00:37:49;;;;;;;56.58;7.20;;;;;;;11.30;100.00;100849.84;5031087;28;20048;-75
2023/11/19 00:40:17;;;;;;;72.18;8.68;;;;;;;11.30;100.00;100860.50;5032055;28;20037;-77
2023/11/19 00:42:43;;;;;;;56.13;7.47;;;;;;;11.32;100.00;100865.66;5032019;28;20087;-78
2023/11/19 00:45:09;;;;;;;44.90;7.35;;;;;;;11.34;100.00;100861.84;5031625;28;20368;-78
2023/11/19 00:47:35;;;;;;;54.83;7.28;;;;;;;11.30;100.00;100863.16;5031402;28;20167;-78
2023/11/19 00:50:01;;;;;;;46.95;6.10;;;;;;;11.28;100.00;100863.25;5029705;28;20033;-77
2023/11/19 00:52:26;;;;;;;58.40;8.20;;;;;;;11.31;100.00;100851.50;5031511;28;20079;-76
2023/11/19 00:54:52;;;;;;;65.22;8.02;;;;;;;11.29;100.00;100853.47;5030550;28;20420;-75
2023/11/19 00:57:17;;;;;;;50.63;6.68;;;;;;;11.28;100.00;100839.28;5032446;28;20529;-76
2023/11/19 00:59:43;;;;;;;45.53;7.18;;;;;;;11.28;100.00;100847.28;5035691;28;20492;-76
2023/11/19 01:02:08;;;;;;;53.17;6.93;;;;;;;11.26;100.00;100840.44;5035147;28;20532;-76
2023/11/19 01:04:35;;;;;;;53.60;6.95;;;;;;;11.26;100.00;100843.94;5035613;28;20036;-75
2023/11/19 01:07:06;;;;;;;56.83;7.00;;;;;;;11.23;100.00;100833.56;5034982;28;20072;-77
2023/11/19 01:09:34;;;;;;;62.13;7.80;;;;;;;11.22;100.00;100831.06;5035437;28;20031;-75
2023/11/19 01:12:00;;;;;;;59.80;7.88;;;;;;;11.18;100.00;100830.50;5034784;28;20377;-76
2023/11/19 01:14:26;;;;;;;59.88;8.20;;;;;;;11.11;100.00;100827.56;5035151;28;20044;-76
2023/11/19 01:16:53;;;;;;;50.33;8.07;;;;;;;11.07;100.00;100831.47;5034466;28;20033;-75
2023/11/19 01:19:19;;;;;;;54.80;6.90;;;;;;;11.03;100.00;100835.44;5035234;28;20037;-77
2023/11/19 01:21:45;;;;;;;56.33;6.55;;;;;;;10.99;100.00;100827.84;5036538;28;20095;-77
2023/11/19 01:24:13;;;;;;;55.38;6.65;;;;;;;10.93;100.00;100824.78;5036003;28;20033;-76
2023/11/19 01:26:38;;;;;;;47.10;6.97;;;;;;;10.89;100.00;100828.72;5036110;28;20056;-76
2023/11/19 01:29:04;;;;;;;56.10;8.32;;;;;;;10.86;100.00;100830.81;5034737;28;20390;-77
2023/11/19 01:31:31;;;;;;;55.38;7.68;;;;;;;10.81;100.00;100838.38;5035018;28;20044;-75
2023/11/19 01:33:57;;;;;;;50.08;6.85;;;;;;;10.78;100.00;100831.53;5033087;28;20521;-76
2023/11/19 01:36:23;;;;;;;72.78;8.02;;;;;;;10.76;100.00;100828.16;5034748;28;20249;-76
2023/11/19 01:38:48;;;;;;;62.85;7.10;;;;;;;10.80;100.00;100829.56;5034822;28;20039;-77
2023/11/19 01:41:14;;;;;;;64.32;7.68;;;;;;;10.75;100.00;100835.31;5034563;28;20033;-76
2023/11/19 01:43:43;;;;;;;61.17;7.93;;;;;;;10.72;100.00;100826.78;5034863;28;20037;-77
2023/11/19 01:46:09;;;;;;;63.00;7.43;;;;;;;10.69;100.00;100822.56;5034308;28;20030;-77
2023/11/19 01:48:41;;;;;;;52.65;6.70;;;;;;;10.71;100.00;100822.41;5034451;28;20042;-77
2023/11/19 01:51:06;;;;;;;;;;;;;;;10.69;100.00;100814.59;5034510;28;20458;-77
2023/11/19 01:53:33;;;;;;;58.10;7.30;;;;;;;10.65;100.00;100818.50;5034433;28;19928;-76
2023/11/19 01:55:59;;;;;;;55.53;7.55;;;;;;;10.63;100.00;100812.47;5034030;28;20172;-76
2023/11/19 01:58:25;;;;;;;52.15;7.15;;;;;;;10.62;100.00;100828.59;5034476;28;20094;-76
2023/11/19 02:00:51;;;;;;;54.95;7.47;;;;;;;10.62;100.00;100824.09;5034336;28;20120;-76
2023/11/19 02:03:17;;;;;;;49.63;7.15;;;;;;;10.56;100.00;100841.44;5033892;28;20049;-76
2023/11/19 02:05:42;;;;;;;53.58;6.85;;;;;;;10.55;100.00;100844.25;5034155;28;20033;-75
2023/11/19 02:08:08;;;;;;;61.25;8.05;;;;;;;10.58;100.00;100851.97;5033430;28;20033;-76
2023/11/19 02:10:33;;;;;;;50.97;6.68;;;;;;;10.59;100.00;100848.31;5033269;28;20164;-77
2023/11/19 02:12:59;;;;;;;59.30;6.95;;;;;;;10.65;100.00;100844.28;5033427;28;20065;-76
2023/11/19 02:15:24;;;;;;;47.60;6.90;;;;;;;10.64;100.00;100840.75;5033965;28;20108;-77
2023/11/19 02:17:51;;;;;;;55.35;7.95;;;;;;;10.70;100.00;100842.03;5033792;28;20072;-76
2023/11/19 02:20:17;;;;;;;43.90;7.00;;;;;;;10.71;100.00;100835.72;5033443;28;20089;-77
2023/11/19 02:22:44;;;;;;;46.00;7.30;;;;;;;10.65;100.00;100838.94;5033808;28;20037;-76
2023/11/19 02:25:22;;;;;;;52.25;8.57;;;;;;;10.62;100.00;100828.59;5033350;28;20082;-76
2023/11/19 02:27:55;;;;;;;69.97;8.02;;;;;;;10.64;100.00;100826.63;5034116;28;20040;-77
2023/11/19 02:30:21;;;;;;;43.15;5.85;;;;;;;10.65;100.00;100815.00;5033253;28;20021;-76
2023/11/19 02:32:48;;;;;;;55.58;7.10;;;;;;;10.57;100.00;100823.69;5032261;28;20195;-75
2023/11/19 02:35:13;;;;;;;66.78;8.70;;;;;;;10.53;100.00;100823.09;5033196;28;20052;-75
2023/11/19 02:37:38;;;;;;;51.97;7.10;;;;;;;10.50;100.00;100819.91;5031993;28;20029;-75
2023/11/19 02:40:05;;;;;;;64.50;7.80;;;;;;;10.45;100.00;100822.97;5033116;28;20029;-75
2023/11/19 02:42:31;;;;;;;45.25;6.68;;;;;;;10.42;100.00;100831.25;5033515;28;20466;-76
2023/11/19 02:44:57;;;;;;;45.17;6.57;;;;;;;10.39;100.00;100836.84;5033067;28;20559;-76
2023/11/19 02:47:23;;;;;;;59.03;7.10;;;;;;;10.36;100.00;100818.47;5032665;28;20025;-76
2023/11/19 02:49:49;;;;;;;56.88;8.13;;;;;;;10.30;100.00;100817.19;5033377;28;20114;-76
2023/11/19 02:52:15;;;;;;;60.35;7.97;;;;;;;10.28;100.00;100818.28;5031575;28;20061;-75
2023/11/19 02:54:41;;;;;;;51.75;6.38;;;;;;;10.26;100.00;100821.09;5032718;28;20119;-79
2023/11/19 02:57:08;;;;;;;51.50;7.18;;;;;;;10.22;100.00;100831.16;5031481;28;20041;-77
2023/11/19 02:59:38;;;;;;;52.70;7.28;;;;;;;10.18;100.00;100832.41;5033198;28;20057;-76
2023/11/19 03:02:06;;;;;;;47.05;7.22;;;;;;;10.18;100.00;100824.44;5032735;28;20068;-77
2023/11/19 03:04:33;;;;;;;44.30;6.32;;;;;;;10.18;100.00;100815.59;5033537;28;20029;-76
2023/11/19 03:06:58;;;;;;;53.70;7.22;;;;;;;10.18;100.00;100821.78;5033176;28;20057;-76
2023/11/19 03:09:24;;;;;;;59.60;7.22;;;;;;;10.26;100.00;100820.25;5031670;28;20504;-76
2023/11/19 03:11:50;;;;;;;54.53;7.35;;;;;;;10.29;100.00;100820.00;5031641;28;20033;-79
2023/11/19 03:14:15;;;;;;;53.35;6.97;;;;;;;10.24;100.00;100817.75;5032490;28;20096;-78
2023/11/19 03:16:40;;;;;;;55.72;7.75;;;;;;;10.21;100.00;100802.03;5032935;28;20053;-77
2023/11/19 03:19:06;;;;;;;40.53;5.85;;;;;;;10.22;100.00;100787.78;5032515;28;20138;-77
2023/11/19 03:21:31;;;;;;;63.25;6.63;;;;;;;10.17;100.00;100805.97;5031528;28;20437;-76
2023/11/19 03:24:03;;;;;;;48.72;7.55;;;;;;;10.15;100.00;100786.63;5031520;28;20038;-76
2023/11/19 03:26:29;;;;;;;53.47;7.22;;;;;;;10.10;100.00;100800.34;5032373;28;20484;-76
2023/11/19 03:28:55;;;;;;;50.75;6.85;;;;;;;10.14;100.00;100793.78;5032783;28;20029;-76
2023/11/19 03:31:21;;;;;;;65.30;8.07;;;;;;;10.16;100.00;100786.50;5030969;28;20026;-76
2023/11/19 03:33:46;;;;;;;55.92;7.95;;;;;;;10.12;100.00;100805.53;5032684;28;20092;-76
2023/11/19 03:36:12;;;;;;;54.53;6.57;;;;;;;10.06;100.00;100802.44;5031928;28;20041;-77
2023/11/19 03:38:38;;;;;;;50.17;7.45;;;;;;;10.06;100.00;100809.56;5032486;28;20037;-76
2023/11/19 03:41:14;;;;;;;59.28;7.63;;;;;;;10.03;100.00;100818.69;5032384;28;20131;-76
2023/11/19 03:43:40;;;;;;;54.65;7.43;;;;;;;10.00;100.00;100807.47;5032118;28;20116;-76
2023/11/19 03:46:18;;;;;;;51.33;6.97;;;;;;;10.05;100.00;100814.06;5032233;28;20052;-76
2023/11/19 03:48:43;;;;;;;54.35;7.72;;;;;;;10.03;100.00;100813.34;5032322;28;20040;-76
2023/11/19 03:51:09;;;;;;;50.95;6.60;;;;;;;10.03;100.00;100818.69;5031898;28;20128;-80
2023/11/19 03:53:35;;;;;;;59.13;6.80;;;;;;;10.02;100.00;100814.31;5032032;28;20076;-76
2023/11/19 03:56:00;;;;;;;49.75;6.32;;;;;;;9.96;100.00;100814.03;5032022;28;20057;-76
2023/11/19 03:58:27;;;;;;;45.15;7.00;;;;;;;9.87;100.00;100824.50;5031357;28;20056;-76
2023/11/19 04:00:52;;;;;;;63.15;7.40;;;;;;;9.84;100.00;100811.47;5031918;28;20034;-76
2023/11/19 04:03:19;;;;;;;53.08;7.50;;;;;;;9.82;100.00;100818.75;5031814;28;20048;-77
2023/11/19 04:05:44;;;;;;;51.05;6.93;;;;;;;9.89;100.00;100821.69;5032340;28;20092;-77
2023/11/19 04:08:10;;;;;;;64.50;7.68;;;;;;;9.96;100.00;100828.16;5032144;28;20033;-76
2023/11/19 04:10:35;;;;;;;59.58;8.55;;;;;;;9.96;100.00;100830.81;5031887;28;20042;-76
2023/11/19 04:13:01;;;;;;;47.72;6.20;;;;;;;9.96;100.00;100827.34;5030669;28;20113;-76
2023/11/19 04:15:26;;;;;;;45.45;5.65;;;;;;;9.99;100.00;100816.44;5031582;28;20362;-77
2023/11/19 04:17:51;;;;;;;43.47;6.75;;;;;;;9.97;100.00;100821.88;5031909;28;20056;-76
2023/11/19 04:20:17;;;;;;;55.42;6.70;;;;;;;10.02;100.00;100811.66;5031068;28;20053;-77
2023/11/19 04:22:42;;;;;;;38.63;6.53;;;;;;;10.14;100.00;100815.06;5031922;28;20037;-76
2023/11/19 04:25:08;;;;;;;44.65;6.55;;;;;;;10.18;100.00;100805.84;5031379;28;20544;-76
2023/11/19 04:27:33;;;;;;;46.13;5.93;;;;;;;10.21;100.00;100810.88;5030982;28;20433;-76
2023/11/19 04:30:01;;;;;;;55.00;7.65;;;;;;;10.15;100.00;100822.06;5031724;28;20034;-76
2023/11/19 04:32:27;;;;;;;45.42;6.80;;;;;;;10.24;100.00;100820.41;5030956;28;20116;-76
2023/11/19 04:34:52;;;;;;;54.72;7.28;;;;;;;10.26;100.00;100813.13;5031718;28;20125;-77
2023/11/19 04:37:17;;;;;;;50.90;6.40;;;;;;;10.28;100.00;100811.16;5031294;28;20421;-77
2023/11/19 04:39:46;;;;;;;43.60;6.55;;;;;;;10.27;100.00;100806.84;5031717;28;20034;-75
2023/11/19 04:42:11;;;;;;;44.55;6.72;;;;;;;10.30;100.00;100811.88;5031774;28;20029;-77
2023/11/19 04:44:36;;;;;;;44.80;6.57;;;;;;;10.25;100.00;100806.09;5031022;28;20455;-76
2023/11/19 04:47:02;;;;;;;43.85;7.10;;;;;;;10.31;100.00;100807.38;5031447;28;20038;-77
2023/11/19 04:49:27;;;;;;;42.88;6.32;;;;;;;10.36;100.00;100798.06;5031278;28;20118;-77
2023/11/19 04:51:53;;;;;;;36.30;5.50;;;;;;;10.31;100.00;100815.38;5031686;28;20037;-76
2023/11/19 04:54:19;;;;;;;41.22;5.78;;;;;;;10.33;100.00;100819.59;5031305;28;20124;-76
2023/11/19 04:56:47;;;;;;;45.90;6.55;;;;;;;10.35;100.00;100824.78;5032592;28;20038;-74
2023/11/19 04:59:13;;;;;;;42.28;5.88;;;;;;;10.31;100.00;100815.38;5032841;28;20038;-75
2023/11/19 05:01:38;;;;;;;41.55;5.78;;;;;;;10.21;100.00;100816.19;5031465;28;20033;-75
2023/11/19 05:04:04;;;;;;;43.88;6.25;;;;;;;10.14;100.00;100815.06;5032460;28;20065;-75
2023/11/19 05:06:30;;;;;;;50.28;6.95;;;;;;;10.16;100.00;100810.44;5032089;28;20046;-75
2023/11/19 05:08:56;;;;;;;47.08;6.95;;;;;;;10.18;100.00;100811.16;5032312;28;20211;-76
2023/11/19 05:11:22;;;;;;;43.78;6.38;;;;;;;10.17;100.00;100819.25;5031701;28;20044;-76
2023/11/19 05:13:48;;;;;;;44.58;5.75;;;;;;;10.19;100.00;100833.25;5032212;28;20033;-76
2023/11/19 05:16:17;;;;;;;45.40;6.18;;;;;;;10.20;100.00;100830.47;5031659;28;20025;-75
2023/11/19 05:18:43;;;;;;;39.50;6.68;;;;;;;10.18;100.00;100831.56;5030881;28;20033;-75
2023/11/19 05:21:08;;;;;;;43.95;6.13;;;;;;;10.12;100.00;100817.03;5031389;28;20433;-75
2023/11/19 05:23:34;;;;;;;49.67;5.55;;;;;;;10.12;100.00;100821.47;5030853;28;20037;-76
2023/11/19 05:26:01;;;;;;;53.70;7.28;;;;;;;10.12;100.00;100824.13;5031041;28;20026;-75
2023/11/19 05:28:26;;;;;;;48.42;6.57;;;;;;;10.10;100.00;100829.59;5030565;28;20034;-75
2023/11/19 05:30:52;;;;;;;40.15;6.82;;;;;;;10.08;100.00;100826.25;5031048;28;20148;-75
2023/11/19 05:33:17;;;;;;;52.97;7.45;;;;;;;10.12;100.00;100830.31;5030562;28;20092;-74
2023/11/19 05:35:42;;;;;;;41.03;6.25;;;;;;;10.15;100.00;100835.34;5030963;28;20541;-75
2023/11/19 05:38:09;;;;;;;43.53;6.93;;;;;;;10.17;100.00;100836.03;5031790;28;20036;-75
2023/11/19 05:40:34;;;;;;;44.40;6.53;;;;;;;10.16;100.00;100830.88;5031419;28;20100;-74
2023/11/19 05:43:00;;;;;;;41.40;5.80;;;;;;;10.10;100.00;100824.28;5031909;28;20469;-75
2023/11/19 05:45:26;;;;;;;47.28;6.28;;;;;;;10.09;100.00;100835.91;5033952;28;20041;-74
2023/11/19 05:47:52;;;;;;;53.92;6.32;;;;;;;10.13;100.00;100828.47;5035520;28;20034;-74
2023/11/19 05:50:18;;;;;;;47.58;6.05;;;;;;;10.13;100.00;100828.47;5035352;28;20119;-75
2023/11/19 05:52:43;;;;;;;40.08;6.72;;;;;;;10.19;100.00;100831.44;5034875;28;20034;-74
2023/11/19 05:55:09;;;;;;;46.88;6.32;;;;;;;10.12;100.00;100825.00;5034975;28;20514;-74
2023/11/19 05:57:36;;;;;;;40.58;5.95;;;;;;;10.09;100.00;100817.28;5034784;28;20108;-75
2023/11/19 06:00:05;;;;;;;38.45;5.22;;;;;;;10.02;100.00;100811.66;5035383;28;20034;-75
2023/11/19 06:02:32;;;;;;;54.92;6.50;;;;;;;10.00;100.00;100810.97;5034731;28;20492;-74
2023/11/19 06:04:58;;;;;;;41.42;5.32;;;;;;;10.02;100.00;100811.66;5035203;28;20112;-74
2023/11/19 06:07:23;;;;;;;42.80;6.05;;;;;;;10.03;100.00;100812.50;5035153;28;20108;-74
2023/11/19 06:09:48;;;;;;;36.75;5.68;;;;;;;9.97;100.00;100813.03;5034634;28;20025;-74
2023/11/19 06:12:14;;;;;;;45.58;5.32;;;;;;;9.97;100.00;100823.69;5034594;28;20389;-74
2023/11/19 06:14:40;;;;;;;42.95;6.88;;;;;;;9.99;100.00;100816.44;5034489;28;20032;-73
2023/11/19 06:17:05;;;;;;;42.50;6.47;;;;;;;9.96;100.00;100811.38;5033669;28;20036;-74
2023/11/19 06:19:31;;;;;;;44.33;6.38;;;;;;;9.91;100.00;100816.25;5033219;28;20057;-74
2023/11/19 06:21:56;;;;;;;43.35;6.07;;;;;;;9.87;100.00;100824.50;5034954;28;20060;-73
2023/11/19 06:24:22;;;;;;;48.28;6.80;;;;;;;9.88;100.00;100830.63;5034444;28;20037;-74
2023/11/19 06:26:47;;;;;;;49.38;6.13;;;;;;;9.87;100.00;100829.81;5034370;28;20106;-73
2023/11/19 06:29:18;;;;;;;41.28;6.40;;;;;;;9.96;100.00;100832.66;5034676;28;20112;-74
2023/11/19 06:31:43;;;;;;;42.45;6.05;;;;;;;9.99;100.00;100837.69;5034064;28;20482;-73
2023/11/19 06:34:10;;;;;;;44.67;6.70;;;;;;;10.00;100.00;100839.34;5034527;28;20040;-74
2023/11/19 06:36:35;;;;;;;35.17;5.40;;;;;;;10.03;100.00;100839.94;5034125;28;20497;-74
2023/11/19 06:39:01;;;;;;;42.15;7.65;;;;;;;10.11;100.00;100833.09;5034507;28;20025;-74
2023/11/19 06:41:28;;;;;;;45.83;5.95;;;;;;;10.24;100.00;100854.97;5034311;28;20120;-73
2023/11/19 06:43:54;;;;;;;47.45;6.53;;;;;;;10.34;100.00;100845.19;5034054;28;20152;-74
2023/11/19 06:46:19;;;;;;;51.22;6.88;;;;;;;10.40;100.00;100851.78;5034173;28;20113;-73
2023/11/19 06:48:45;;;;;;;42.53;5.78;;;;;;;10.45;100.00;100848.72;5034050;28;20112;-74
2023/11/19 06:51:11;;;;;;;44.60;6.60;;;;;;;10.45;100.00;100852.25;5034052;28;20392;-73
2023/11/19 06:53:37;;;;;;;43.80;5.63;;;;;;;10.49;100.00;100855.44;5033836;28;20037;-74
2023/11/19 06:56:06;;;;;;;43.92;6.15;;;;;;;10.52;100.00;100847.19;5034327;28;20529;-74
2023/11/19 06:58:40;;;;;;;41.28;6.20;;;;;;;10.47;100.00;100849.44;5034010;28;20029;-81
2023/11/19 07:01:07;;;;;;;39.00;6.47;;;;;;;10.45;100.00;100848.72;5033133;28;20472;-73
2023/11/19 07:03:35;;;;;;;53.88;6.68;;;;;;;10.51;100.00;100858.81;5033695;28;20088;-74
2023/11/19 07:06:00;;;;;;;55.88;6.40;;;;;;;10.56;100.00;100853.94;5034113;28;20056;-76
2023/11/19 07:08:26;;;;;;;50.60;6.10;;;;;;;10.64;100.00;100850.56;5034207;28;20069;-76
2023/11/19 07:10:52;;;;;;;50.05;5.75;;;;;;;10.66;100.00;100846.78;5033666;28;20033;-74
2023/11/19 07:13:18;;;;;;;54.67;7.15;;;;;;;10.64;100.00;100845.25;5033827;28;20037;-74
2023/11/19 07:15:44;;;;;;;47.72;6.32;;;;;;;10.62;100.00;100850.72;5033546;28;20108;-74
2023/11/19 07:18:11;;;;;;;49.53;6.68;;;;;;;10.56;100.00;100846.78;5033671;28;20129;-78
2023/11/19 07:20:37;;;;;;;45.35;6.80;;;;;;;10.50;100.00;100854.47;5033386;28;20079;-76
2023/11/19 07:23:03;;;;;;;50.33;7.35;;;;;;;10.54;100.00;100840.75;5032213;28;20037;-75
2023/11/19 07:25:28;;;;;;;44.40;6.35;;;;;;;10.49;100.00;100842.97;5032411;28;20029;-76
2023/11/19 07:27:54;;;;;;;41.92;5.95;;;;;;;10.40;100.00;100839.34;5032884;28;20312;-76
2023/11/19 07:30:19;;;;;;;53.70;6.32;;;;;;;10.41;100.00;100848.16;5033930;28;20116;-75
2023/11/19 07:32:44;;;;;;;42.80;6.22;;;;;;;10.42;100.00;100852.53;5017129;28;20088;-77
2023/11/19 07:35:10;;;;;;;46.90;6.95;;;;;;;10.41;100.00;100853.50;5011182;28;20038;-77
2023/11/19 07:37:35;;;;;;;49.35;7.07;;;;;;;10.51;100.00;100848.16;5011301;28;20589;-79
2023/11/19 07:40:01;;;;;;;40.67;6.63;;;;;;;10.48;100.00;100843.97;5010450;28;20766;-76
2023/11/19 07:42:27;;;;;;;39.72;5.82;;;;;;;10.48;100.00;100840.47;5010920;28;20034;-78
2023/11/19 07:44:55;;;;;;;39.53;5.55;;;;;;;10.48;100.00;100837.81;5010237;28;20037;-77
2023/11/19 07:47:23;;;;;;;46.70;5.80;;;;;;;10.47;100.00;100850.28;5010788;28;20038;-78
2023/11/19 07:49:48;;;;;;;48.35;7.00;;;;;;;10.51;100.00;100874.75;5010471;28;20077;-80
2023/11/19 07:52:13;;;;;;;42.80;6.57;;;;;;;10.58;100.00;100851.97;5010759;28;20073;-77
2023/11/19 07:54:39;;;;;;;43.45;6.32;;;;;;;10.61;100.00;100854.34;5010252;28;20236;-76
2023/11/19 07:57:04;;;;;;;38.53;5.82;;;;;;;10.70;100.00;100842.88;5010538;28;20145;-77
2023/11/19 07:59:30;;;;;;;40.78;6.22;;;;;;;10.80;100.00;100853.50;5010318;28;20034;-75
2023/11/19 08:01:55;;;;;;;48.38;6.57;;;;;;;10.85;100.00;100858.41;5009909;28;20084;-76
2023/11/19 08:04:20;;;;;;;47.83;5.72;;;;;;;10.84;100.00;100860.25;5010297;28;20038;-78
2023/11/19 08:06:46;;;;;;;38.05;6.53;;;;;;;10.82;100.00;100848.03;5009568;28;20041;-77
2023/11/19 08:09:13;;;;;;;39.63;5.35;;;;;;;10.86;100.00;100854.78;5010176;28;20036;-78
2023/11/19 08:11:40;;;;;;;42.55;6.07;;;;;;;10.93;100.00;100843.41;5022106;28;20115;-79
2023/11/19 08:14:05;;;;;;;45.75;6.63;;;;;;;11.00;100.00;100858.81;5042531;28;20116;-76
2023/11/19 08:16:31;;;;;;;37.90;5.63;;;;;;;11.05;100.00;100857.44;5052756;28;20052;-76
2023/11/19 08:18:58;;;;;;;43.30;6.65;;;;;;;11.07;100.00;100859.94;5051976;28;20068;-76
2023/11/19 08:21:23;;;;;;;44.72;6.50;;;;;;;11.17;100.00;100859.94;5052645;28;20074;-77
2023/11/19 08:23:48;;;;;;;45.72;6.57;;;;;;;11.35;100.00;100862.72;5051020;28;20088;-76
2023/11/19 08:26:15;;;;;;;50.58;6.72;;;;;;;11.54;100.00;100859.13;5034830;28;20029;-77
2023/11/19 08:28:40;;;;;;;41.38;6.50;;;;;;;11.60;100.00;100859.41;5052263;28;20522;-76
2023/11/19 08:31:06;;;;;;;54.25;7.10;;;;;;;11.55;100.00;100856.34;5052198;28;20060;-75
2023/11/19 08:33:32;;;;;;;44.63;6.68;;;;;;;11.63;100.00;100853.78;5052542;28;20033;-77
2023/11/19 08:35:58;;;;;;;48.33;5.97;;;;;;;11.68;100.00;100847.19;5034397;28;20033;-77
2023/11/19 08:38:24;;;;;;;45.35;6.38;;;;;;;11.75;100.00;100858.97;5050458;28;20033;-76
2023/11/19 08:40:49;;;;;;;42.20;5.78;;;;;;;11.86;100.00;100864.09;5050968;28;20098;-77
2023/11/19 08:43:15;;;;;;;47.25;6.75;;;;;;;11.92;100.00;100852.81;5051597;28;20037;-76
2023/11/19 08:45:40;;;;;;;53.28;7.60;;;;;;;11.83;100.00;100851.06;5051678;28;20033;-76
2023/11/19 08:48:05;;;;;;;52.70;6.70;;;;;;;11.79;100.00;100855.84;5051011;28;20061;-77
2023/11/19 08:50:31;;;;;;;47.08;7.32;;;;;;;11.82;100.00;100852.03;5050082;28;20029;-76
2023/11/19 08:52:56;;;;;;;50.28;6.95;;;;;;;11.91;100.00;100856.50;5051002;28;20033;-77
2023/11/19 08:55:21;;;;;;;54.25;7.85;;;;;;;11.98;100.00;100843.44;5051126;28;20049;-78
2023/11/19 08:57:47;;;;;;;40.28;5.63;;;;;;;11.98;100.00;100841.59;5050852;28;20029;-80
2023/11/19 09:00:14;;;;;;;48.40;6.20;;;;;;;11.94;100.00;100842.03;5051572;28;20029;-77
2023/11/19 09:02:39;;;;;;;43.17;6.50;;;;;;;11.89;100.00;100847.78;5051161;28;20041;-76
2023/11/19 09:05:07;;;;;;;33.90;5.38;;;;;;;11.89;100.00;100854.97;5050954;28;20040;-76
2023/11/19 09:07:32;;;;;;;41.40;6.07;;;;;;;11.88;100.00;100840.78;5051349;28;20045;-76
2023/11/19 09:09:58;;;;;;;47.65;6.70;;;;;;;11.89;100.00;100844.28;5050840;28;20395;-77
2023/11/19 09:12:23;;;;;;;52.33;8.00;;;;;;;11.76;100.00;100852.63;5051073;28;20083;-76
2023/11/19 09:14:49;;;;;;;42.08;6.47;;;;;;;11.73;100.00;100852.91;5050962;28;20099;-81
2023/11/19 09:17:14;;;;;;;39.25;5.50;;;;;;;11.74;100.00;100843.94;5051145;28;20025;-78
2023/11/19 09:19:40;;;;;;;51.00;6.63;;;;;;;11.76;100.00;100850.81;5051489;28;20036;-76
2023/11/19 09:22:05;;;;;;;43.28;7.43;;;;;;;11.89;100.00;100842.47;5053394;28;20068;-77
2023/11/19 09:24:31;;;;;;;47.72;5.88;;;;;;;11.95;100.00;100844.56;5054866;28;20041;-76
2023/11/19 09:26:57;;;;;;;41.20;5.30;;;;;;;11.98;100.00;100849.59;5054669;28;20033;-77
2023/11/19 09:29:23;;;;;;;38.22;6.25;;;;;;;12.09;100.00;100840.59;5054941;28;20064;-76
2023/11/19 09:31:49;;;;;;;31.45;5.70;;;;;;;12.31;100.00;100827.81;5054954;28;20535;-77
2023/11/19 09:34:14;;;;;;;42.95;5.82;;;;;;;12.55;100.00;100829.88;5054604;28;20115;-76
2023/11/19 09:36:43;;;;;;;37.85;5.88;;;;;;;12.69;100.00;100834.69;5054836;28;20473;-76
2023/11/19 09:39:09;;;;;;;47.38;5.93;;;;;;;12.77;100.00;100820.56;5053784;28;20385;-76
2023/11/19 09:41:35;;;;;;;38.45;5.90;;;;;;;12.81;100.00;100837.97;5056275;28;20075;-76
2023/11/19 09:44:00;;;;;;;35.35;5.00;;;;;;;12.71;100.00;100855.88;5055183;28;20033;-79
2023/11/19 09:46:26;;;;;;;48.35;5.78;;;;;;;12.65;100.00;100838.66;5055729;28;20033;-77
2023/11/19 09:48:57;;;;;;;37.63;6.18;;;;;;;12.66;100.00;100851.00;5055350;28;20103;-76
2023/11/19 09:51:23;;;;;;;35.08;6.20;;;;;;;12.78;100.00;100842.75;5054256;28;20497;-77
2023/11/19 09:53:49;;;;;;;41.85;5.82;;;;;;;12.81;100.00;100845.16;5055383;28;20029;-78
2023/11/19 09:56:16;;;;;;;38.15;5.97;;;;;;;12.99;100.00;100853.97;5054909;28;20056;-76
2023/11/19 09:58:42;;;;;;;39.35;6.10;;;;;;;13.08;100.00;100851.34;5055216;28;20043;-77
2023/11/19 10:01:09;;;;;;;33.80;5.68;;;;;;;12.86;100.00;100854.34;5054595;28;20112;-77
2023/11/19 10:03:37;;;;;;;33.67;5.53;;;;;;;12.72;100.00;100844.22;5055143;28;20493;-77
2023/11/19 10:06:04;;;;;;;44.95;5.60;;;;;;;12.65;100.00;100851.16;5054732;28;20048;-79
2023/11/19 10:08:30;;;;;;;36.35;5.72;;;;;;;12.61;100.00;100865.78;5055165;28;20393;-78
2023/11/19 10:10:55;;;;;;;32.85;5.47;;;;;;;12.54;100.00;100844.22;5054548;28;20044;-87
2023/11/19 10:13:27;;;;;;;31.20;5.90;;;;;;;12.61;100.00;100839.09;5053277;28;20029;-77
2023/11/19 10:15:52;;;;;;;38.33;5.85;;;;;;;12.60;100.00;100838.28;5055057;28;20124;-75
2023/11/19 10:18:18;;;;;;;34.60;5.43;;;;;;;12.61;100.00;100834.59;5054162;28;20070;-76
2023/11/19 10:20:44;;;;;;;34.90;5.82;;;;;;;12.59;100.00;100830.44;5054941;28;20400;-77
2023/11/19 10:23:11;;;;;;;32.33;5.47;;;;;;;12.52;100.00;100848.84;5054098;28;20124;-77
2023/11/19 10:25:36;;;;;;;37.63;6.07;;;;;;;12.56;100.00;100841.41;5054620;28;20046;-78
2023/11/19 10:28:03;;;;;;;35.45;5.00;;;;;;;12.56;100.00;100826.22;5054274;28;20109;-77
2023/11/19 10:30:30;;;;;;;41.55;6.55;;;;;;;12.57;100.00;100821.72;5054295;28;20036;-78
2023/11/19 10:33:05;;;;;;;45.88;4.72;;;;;;;12.60;100.00;100827.59;5054614;28;20032;-78
2023/11/19 10:35:32;;;;;;;31.58;5.53;;;;;;;12.70;100.00;100822.16;5054516;28;20047;-77
2023/11/19 10:38:13;;;;;;;29.35;4.40;;;;;;;12.87;100.00;100831.19;5053211;28;20326;-78
2023/11/19 10:40:42;;;;;;;40.40;6.78;;;;;;;12.92;100.00;100831.53;5053153;28;20033;-77
2023/11/19 10:43:08;;;;;;;47.70;5.65;;;;;;;13.07;100.00;100828.31;5053891;28;20040;-77
2023/11/19 10:45:35;;;;;;;40.28;5.85;;;;;;;13.21;100.00;100835.75;5054279;28;20144;-75
2023/11/19 10:48:02;;;;;;;41.30;6.40;;;;;;;13.20;100.00;100820.72;5053852;28;20051;-79
2023/11/19 10:50:28;;;;;;;34.42;5.32;;;;;;;13.23;100.00;100828.44;5054056;28;20456;-77
2023/11/19 10:52:58;;;;;;;36.03;6.25;;;;;;;13.27;100.00;100819.13;5054059;28;20029;-77
2023/11/19 10:55:27;;;;;;;31.92;5.72;;;;;;;13.28;100.00;100831.47;5053492;28;20081;-75
2023/11/19 10:57:56;;;;;;;38.08;4.97;;;;;;;13.25;100.00;100829.09;5052921;28;20526;-80
2023/11/19 11:00:23;;;;;;;30.27;4.53;;;;;;;13.16;100.00;100833.53;5053641;28;20041;-80
2023/11/19 11:02:54;;;;;;;35.13;5.43;;;;;;;13.21;100.00;100827.72;5054129;28;20048;-78
2023/11/19 11:05:21;;;;;;;35.75;5.25;;;;;;;13.28;100.00;100841.31;5053382;28;20098;-78